createdAt,value
2022-11-24T00:03:33.598Z,2.38
2022-11-24T00:06:20.681Z,2.39
2022-11-24T00:09:08.170Z,2.38
2022-11-24T00:11:55.221Z,2.57
2022-11-24T00:14:42.288Z,2.53
2022-11-24T00:17:29.591Z,2.46
2022-11-24T00:20:16.793Z,2.45
2022-11-24T00:23:03.811Z,2.41
2022-11-24T00:25:50.890Z,2.38
2022-11-24T00:28:38.717Z,2.62
2022-11-24T00:31:28.441Z,2.30
2022-11-24T00:34:15.617Z,2.49
2022-11-24T00:37:02.741Z,2.57
2022-11-24T00:39:49.802Z,2.67
2022-11-24T00:42:36.849Z,2.79
2022-11-24T00:45:23.878Z,2.83
2022-11-24T00:48:11.101Z,2.85
2022-11-24T00:51:00.546Z,2.84
2022-11-24T00:53:48.293Z,2.81
2022-11-24T00:56:35.617Z,2.74
2022-11-24T00:59:22.668Z,2.89
2022-11-24T01:02:09.821Z,2.87
2022-11-24T01:04:56.943Z,2.90
2022-11-24T01:07:44.059Z,3.08
2022-11-24T01:10:31.768Z,3.11
2022-11-24T01:13:18.850Z,3.02
2022-11-24T01:16:06.512Z,3.01
2022-11-24T01:18:53.737Z,2.96
2022-11-24T01:21:40.891Z,3.03
2022-11-24T01:24:27.927Z,3.03
2022-11-24T01:27:14.974Z,2.93
2022-11-24T01:30:02.307Z,2.95
2022-11-24T01:32:49.377Z,2.98
2022-11-24T01:35:36.783Z,2.91
2022-11-24T01:38:24.450Z,2.92
2022-11-24T01:41:14.022Z,3.00
2022-11-24T01:44:01.122Z,2.90
2022-11-24T01:46:51.318Z,2.99
2022-11-24T01:49:49.139Z,2.96
2022-11-24T01:52:45.128Z,2.90
2022-11-24T01:55:37.091Z,2.94
2022-11-24T01:58:28.769Z,2.93
2022-11-24T02:01:15.851Z,2.87
2022-11-24T02:04:06.586Z,2.94
2022-11-24T02:06:55.743Z,2.93
2022-11-24T02:09:56.647Z,3.00
2022-11-24T02:12:46.863Z,2.87
2022-11-24T02:15:34.709Z,2.95
2022-11-24T02:18:21.877Z,2.91
2022-11-24T02:21:14.844Z,2.90
2022-11-24T02:24:31.465Z,2.95
2022-11-24T02:27:20.050Z,2.87
2022-11-24T02:30:07.555Z,2.89
2022-11-24T02:32:55.195Z,2.88
2022-11-24T02:35:42.937Z,2.98
2022-11-24T02:38:34.776Z,2.91
2022-11-24T02:41:25.667Z,3.00
2022-11-24T02:44:16.295Z,2.90
2022-11-24T02:47:06.015Z,2.91
2022-11-24T02:49:53.077Z,2.79
2022-11-24T02:52:40.192Z,2.72
2022-11-24T02:55:27.258Z,2.86
2022-11-24T02:58:15.179Z,2.84
2022-11-24T03:01:02.568Z,2.92
2022-11-24T03:03:49.642Z,2.98
2022-11-24T03:06:36.706Z,2.93
2022-11-24T03:09:23.905Z,2.98
2022-11-24T03:12:10.938Z,2.94
2022-11-24T03:14:58.078Z,2.91
2022-11-24T03:17:45.120Z,2.96
2022-11-24T03:20:32.630Z,2.93
2022-11-24T03:23:19.962Z,2.95
2022-11-24T03:26:09.023Z,2.94
2022-11-24T03:28:57.396Z,2.93
2022-11-24T03:31:44.504Z,2.99
2022-11-24T03:34:31.733Z,3.01
2022-11-24T03:37:18.980Z,2.98
2022-11-24T03:40:06.623Z,2.93
2022-11-24T03:42:53.673Z,3.03
2022-11-24T03:45:47.801Z,3.05
2022-11-24T03:48:35.112Z,3.07
2022-11-24T03:51:22.175Z,2.98
2022-11-24T03:54:09.328Z,3.04
2022-11-24T03:56:56.378Z,2.97
2022-11-24T03:59:43.452Z,3.03
2022-11-24T04:02:30.609Z,2.95
2022-11-24T04:05:17.750Z,3.10
2022-11-24T04:08:05.537Z,3.12
2022-11-24T04:10:54.530Z,3.07
2022-11-24T04:13:41.551Z,3.10
2022-11-24T04:16:28.681Z,3.12
2022-11-24T04:19:15.792Z,3.09
2022-11-24T04:22:02.814Z,3.10
2022-11-24T04:24:49.908Z,3.08
2022-11-24T04:27:38.068Z,3.13
2022-11-24T04:30:28.622Z,3.15
2022-11-24T04:33:15.698Z,3.11
2022-11-24T04:36:02.763Z,3.10
2022-11-24T04:39:24.332Z,3.08
2022-11-24T04:41:59.871Z,3.18
2022-11-24T04:44:47.255Z,3.02
2022-11-24T04:47:34.954Z,3.14
2022-11-24T04:50:22.141Z,3.09
2022-11-24T04:53:11.107Z,3.13
2022-11-24T04:55:58.866Z,3.12
2022-11-24T04:58:49.168Z,3.06
2022-11-24T05:01:36.237Z,3.02
2022-11-24T05:04:23.659Z,3.05
2022-11-24T05:07:18.350Z,3.11
2022-11-24T05:10:25.007Z,3.07
2022-11-24T05:13:14.612Z,3.09
2022-11-24T05:16:01.907Z,3.10
2022-11-24T05:18:49.063Z,3.08
2022-11-24T05:21:36.090Z,3.04
2022-11-24T05:24:23.106Z,3.13
2022-11-24T05:27:10.103Z,3.06
2022-11-24T05:29:57.367Z,3.08
2022-11-24T05:32:44.336Z,2.93
2022-11-24T05:35:32.075Z,3.11
2022-11-24T05:38:19.186Z,3.08
2022-11-24T05:41:06.618Z,3.15
2022-11-24T05:43:53.691Z,3.16
2022-11-24T05:46:40.780Z,3.12
2022-11-24T05:49:27.814Z,3.18
2022-11-24T05:52:15.687Z,3.23
2022-11-24T05:55:04.703Z,3.23
2022-11-24T05:57:58.571Z,3.20
2022-11-24T06:00:45.633Z,3.22
2022-11-24T06:03:32.662Z,3.23
2022-11-24T06:06:19.733Z,3.25
2022-11-24T06:09:09.703Z,3.27
2022-11-24T06:11:56.750Z,3.22
2022-11-24T06:14:43.830Z,3.23
2022-11-24T06:17:31.078Z,3.27
2022-11-24T06:20:18.248Z,3.32
2022-11-24T06:23:05.256Z,3.29
2022-11-24T06:25:52.415Z,3.26
2022-11-24T06:28:39.574Z,3.30
2022-11-24T06:31:26.715Z,3.30
2022-11-24T06:34:13.932Z,3.37
2022-11-24T06:37:02.133Z,3.35
2022-11-24T06:39:49.418Z,3.33
2022-11-24T06:42:37.453Z,3.32
2022-11-24T06:45:25.371Z,3.33
2022-11-24T06:48:12.422Z,3.41
2022-11-24T06:51:05.422Z,3.42
2022-11-24T06:53:52.479Z,3.38
2022-11-24T06:56:39.687Z,3.40
2022-11-24T06:59:27.120Z,3.41
2022-11-24T07:02:14.136Z,3.36
2022-11-24T07:05:01.179Z,3.50
2022-11-24T07:07:50.743Z,3.56
2022-11-24T07:10:38.322Z,3.55
2022-11-24T07:13:25.395Z,3.47
2022-11-24T07:16:17.881Z,3.49
2022-11-24T07:19:05.004Z,3.37
2022-11-24T07:21:52.140Z,3.63
2022-11-24T07:24:39.195Z,3.48
2022-11-24T07:27:27.844Z,3.68
2022-11-24T07:30:14.927Z,3.64
2022-11-24T07:33:03.114Z,3.68
2022-11-24T07:35:50.083Z,3.79
2022-11-24T07:38:37.152Z,3.83
2022-11-24T07:41:24.170Z,3.76
2022-11-24T07:44:11.248Z,3.75
2022-11-24T07:46:58.305Z,3.97
2022-11-24T07:49:45.440Z,3.97
2022-11-24T07:52:32.449Z,4.01
2022-11-24T07:55:19.559Z,4.01
2022-11-24T07:58:06.691Z,4.10
2022-11-24T08:00:53.806Z,4.08
2022-11-24T08:03:41.486Z,4.15
2022-11-24T08:06:36.243Z,4.19
2022-11-24T08:09:27.696Z,4.20
2022-11-24T08:12:16.604Z,4.29
2022-11-24T08:15:09.467Z,4.38
2022-11-24T08:18:01.237Z,4.40
2022-11-24T08:20:48.138Z,4.50
2022-11-24T08:23:35.279Z,4.51
2022-11-24T08:26:23.113Z,4.62
2022-11-24T08:29:10.789Z,4.68
2022-11-24T08:31:58.263Z,4.63
2022-11-24T08:34:45.329Z,4.62
2022-11-24T08:37:32.909Z,4.63
2022-11-24T08:40:20.470Z,4.79
2022-11-24T08:43:07.510Z,4.75
2022-11-24T08:45:54.767Z,4.87
2022-11-24T08:48:41.863Z,4.88
2022-11-24T08:51:28.954Z,4.86
2022-11-24T08:54:18.739Z,4.91
2022-11-24T08:57:05.849Z,5.05
2022-11-24T08:59:52.989Z,5.04
2022-11-24T09:02:40.224Z,5.12
2022-11-24T09:05:51.081Z,5.13
2022-11-24T09:08:34.388Z,5.17
2022-11-24T09:11:22.415Z,5.13
2022-11-24T09:14:09.487Z,5.11
2022-11-24T09:16:56.590Z,5.09
2022-11-24T09:19:43.712Z,5.07
2022-11-24T09:22:31.446Z,5.15
2022-11-24T09:25:18.635Z,5.14
2022-11-24T09:28:05.851Z,5.25
2022-11-24T09:30:52.911Z,5.21
2022-11-24T09:33:40.859Z,5.35
2022-11-24T09:36:28.924Z,5.50
2022-11-24T09:39:15.932Z,5.56
2022-11-24T09:42:35.997Z,5.65
2022-11-24T09:46:04.512Z,5.76
2022-11-24T09:48:55.118Z,5.94
2022-11-24T09:51:47.039Z,6.02
2022-11-24T09:54:37.430Z,6.10
2022-11-24T09:57:26.820Z,6.22
2022-11-24T10:00:15.137Z,6.28
2022-11-24T10:03:02.420Z,6.39
2022-11-24T10:05:51.621Z,6.36
2022-11-24T10:08:38.646Z,6.53
2022-11-24T10:11:52.420Z,6.40
2022-11-24T10:15:01.818Z,6.60
2022-11-24T10:18:16.187Z,6.61
2022-11-24T10:21:24.916Z,6.65
2022-11-24T10:24:36.594Z,6.86
2022-11-24T10:27:34.047Z,6.82
2022-11-24T10:30:24.103Z,6.89
2022-11-24T10:33:28.756Z,6.93
2022-11-24T10:36:41.751Z,6.90
2022-11-24T10:39:58.584Z,7.04
2022-11-24T10:42:48.995Z,7.03
2022-11-24T10:45:37.955Z,7.00
2022-11-24T10:48:27.441Z,6.90
2022-11-24T10:51:41.733Z,7.00
2022-11-24T10:54:29.404Z,6.81
2022-11-24T10:57:27.974Z,6.92
2022-11-24T11:00:20.855Z,6.79
2022-11-24T11:03:17.928Z,6.79
2022-11-24T11:06:15.456Z,6.93
2022-11-24T11:09:08.565Z,6.93
2022-11-24T11:11:56.903Z,6.88
2022-11-24T11:14:48.468Z,7.13
2022-11-24T11:17:38.600Z,7.17
2022-11-24T11:20:30.092Z,7.25
2022-11-24T11:23:24.161Z,7.36
2022-11-24T11:26:32.232Z,7.34
2022-11-24T11:35:37.828Z,7.61
2022-11-24T11:38:38.038Z,7.57
2022-11-24T11:41:36.267Z,7.84
2022-11-24T11:44:36.018Z,7.97
2022-11-24T11:47:31.621Z,8.14
2022-11-24T11:50:27.574Z,7.98
2022-11-24T11:53:18.259Z,8.05
2022-11-24T11:56:16.648Z,8.14
2022-11-24T11:59:32.910Z,8.03
2022-11-24T12:02:50.056Z,7.60
2022-11-24T12:06:02.938Z,7.74
2022-11-24T12:09:21.738Z,7.59
2022-11-24T12:12:27.591Z,7.48
2022-11-24T12:15:30.485Z,7.35
2022-11-24T12:18:48.439Z,7.47
2022-11-24T12:21:40.720Z,7.45
2022-11-24T12:24:47.674Z,7.52
2022-11-24T12:28:03.794Z,7.56
2022-11-24T12:31:08.640Z,7.56
2022-11-24T12:34:07.816Z,7.68
2022-11-24T12:37:15.926Z,7.85
2022-11-24T12:40:08.855Z,7.89
2022-11-24T12:43:26.815Z,8.05
2022-11-24T12:46:47.754Z,8.13
2022-11-24T12:50:05.382Z,8.29
2022-11-24T12:53:13.782Z,8.33
2022-11-24T12:56:13.319Z,8.52
2022-11-24T12:59:39.823Z,8.48
2022-11-24T13:02:57.231Z,8.53
2022-11-24T13:06:17.004Z,8.62
2022-11-24T13:09:11.780Z,8.57
2022-11-24T13:12:13.489Z,8.48
2022-11-24T13:15:00.538Z,8.49
2022-11-24T13:18:05.127Z,8.54
2022-11-24T13:20:54.173Z,8.41
2022-11-24T13:23:41.246Z,8.38
2022-11-24T13:26:43.207Z,8.22
2022-11-24T13:29:32.844Z,8.18
2022-11-24T13:32:19.870Z,8.15
2022-11-24T13:35:16.466Z,8.00
2022-11-24T13:38:24.296Z,8.01
2022-11-24T13:41:34.302Z,7.82
2022-11-24T13:44:24.877Z,8.02
2022-11-24T13:47:35.964Z,7.86
2022-11-24T13:50:44.335Z,7.72
2022-11-24T13:53:45.699Z,7.49
2022-11-24T13:56:32.926Z,7.46
2022-11-24T13:59:33.093Z,7.36
2022-11-24T14:02:24.164Z,7.29
2022-11-24T14:05:19.864Z,7.28
2022-11-24T14:08:16.725Z,7.23
2022-11-24T14:11:13.068Z,7.00
2022-11-24T14:14:16.030Z,7.01
2022-11-24T14:17:24.226Z,6.94
2022-11-24T14:20:22.632Z,6.88
2022-11-24T14:23:10.445Z,6.96
2022-11-24T14:25:57.687Z,6.93
2022-11-24T14:28:45.586Z,7.18
2022-11-24T14:31:33.320Z,7.12
2022-11-24T14:34:22.233Z,7.24
2022-11-24T14:37:10.382Z,7.27
2022-11-24T14:39:57.408Z,7.20
2022-11-24T14:42:50.634Z,7.11
2022-11-24T14:45:37.828Z,6.98
2022-11-24T14:48:30.722Z,7.05
2022-11-24T14:51:26.944Z,6.93
2022-11-24T14:54:18.536Z,6.71
2022-11-24T14:57:21.949Z,6.64
2022-11-24T15:00:11.868Z,6.63
2022-11-24T15:03:02.062Z,6.65
2022-11-24T15:05:52.168Z,6.54
2022-11-24T15:08:45.229Z,6.51
2022-11-24T15:11:34.348Z,6.50
2022-11-24T15:14:36.901Z,6.49
2022-11-24T15:17:27.529Z,6.39
2022-11-24T15:20:26.202Z,6.44
2022-11-24T15:23:16.333Z,6.53
2022-11-24T15:26:03.318Z,6.49
2022-11-24T15:28:50.363Z,6.41
2022-11-24T15:31:38.835Z,6.47
2022-11-24T15:34:25.889Z,6.42
2022-11-24T15:37:13.220Z,6.44
2022-11-24T15:40:00.335Z,6.67
2022-11-24T15:42:54.955Z,6.63
2022-11-24T15:45:41.986Z,6.55
2022-11-24T15:48:29.638Z,6.58
2022-11-24T15:51:16.799Z,6.60
2022-11-24T15:54:04.186Z,6.56
2022-11-24T15:56:51.392Z,6.56
2022-11-24T15:59:38.807Z,6.42
2022-11-24T16:02:25.960Z,6.48
2022-11-24T16:05:14.202Z,6.42
2022-11-24T16:08:01.313Z,6.36
2022-11-24T16:10:48.387Z,6.59
2022-11-24T16:13:35.549Z,6.56
2022-11-24T16:16:25.007Z,6.53
2022-11-24T16:19:13.192Z,6.52
2022-11-24T16:22:00.498Z,6.64
2022-11-24T16:24:47.678Z,6.71
2022-11-24T16:27:35.016Z,6.64
2022-11-24T16:30:22.350Z,6.61
2022-11-24T16:33:09.648Z,6.63
2022-11-24T16:35:56.779Z,6.50
2022-11-24T16:38:44.158Z,6.45
2022-11-24T16:41:31.818Z,6.56
2022-11-24T16:44:19.046Z,6.54
2022-11-24T16:47:06.838Z,6.36
2022-11-24T16:49:53.964Z,6.41
2022-11-24T16:52:42.645Z,6.29
2022-11-24T16:55:29.896Z,6.29
2022-11-24T16:58:18.725Z,6.12
2022-11-24T17:01:08.585Z,6.39
2022-11-24T17:03:56.739Z,6.37
2022-11-24T17:06:44.334Z,6.32
2022-11-24T17:09:35.988Z,6.33
2022-11-24T17:12:28.431Z,6.17
2022-11-24T17:15:32.627Z,6.31
2022-11-24T17:18:25.430Z,6.31
2022-11-24T17:21:15.784Z,6.35
2022-11-24T17:24:09.026Z,6.41
2022-11-24T17:26:56.309Z,6.22
2022-11-24T17:29:43.594Z,6.20
2022-11-24T17:32:32.123Z,6.19
2022-11-24T17:35:20.037Z,6.25
2022-11-24T17:38:07.568Z,6.27
2022-11-24T17:40:56.455Z,6.30
2022-11-24T17:43:44.575Z,6.11
2022-11-24T17:46:33.549Z,6.06
2022-11-24T17:49:21.793Z,6.14
2022-11-24T17:52:09.668Z,6.15
2022-11-24T17:54:58.254Z,6.27
2022-11-24T17:57:46.047Z,6.22
2022-11-24T18:00:34.058Z,6.02
2022-11-24T18:03:22.585Z,6.20
2022-11-24T18:06:13.565Z,6.21
2022-11-24T18:09:01.373Z,6.29
2022-11-24T18:11:49.137Z,6.27
2022-11-24T18:14:37.262Z,6.25
2022-11-24T18:17:28.176Z,6.23
2022-11-24T18:20:17.364Z,6.11
2022-11-24T18:23:06.266Z,6.09
2022-11-24T18:26:00.101Z,6.11
2022-11-24T18:28:48.754Z,6.21
2022-11-24T18:31:37.145Z,6.12
2022-11-24T18:34:28.661Z,6.16
2022-11-24T18:37:16.929Z,6.17
2022-11-24T18:40:05.282Z,6.18
2022-11-24T18:42:53.423Z,5.96
2022-11-24T18:45:41.474Z,6.18
2022-11-24T18:48:30.184Z,6.18
2022-11-24T18:51:19.235Z,6.12
2022-11-24T18:54:07.587Z,6.01
2022-11-24T18:57:00.240Z,5.90
2022-11-24T18:59:50.959Z,6.03
2022-11-24T19:02:38.911Z,6.08
2022-11-24T19:05:26.654Z,6.12
2022-11-24T19:08:17.568Z,6.12
2022-11-24T19:11:07.706Z,6.09
2022-11-24T19:13:56.772Z,6.06
2022-11-24T19:16:45.531Z,6.18
2022-11-24T19:19:36.123Z,6.16
2022-11-24T19:22:23.391Z,6.09
2022-11-24T19:25:12.053Z,6.15
2022-11-24T19:27:59.911Z,6.11
2022-11-24T19:30:48.006Z,6.13
2022-11-24T19:33:36.548Z,6.11
2022-11-24T19:36:25.589Z,6.10
2022-11-24T19:39:15.990Z,6.04
2022-11-24T19:42:05.476Z,6.03
2022-11-24T19:44:56.636Z,6.13
2022-11-24T19:47:46.068Z,6.03
2022-11-24T19:50:35.222Z,6.06
2022-11-24T19:53:24.699Z,6.05
2022-11-24T19:56:22.658Z,5.98
2022-11-24T19:59:10.869Z,6.02
2022-11-24T20:01:59.982Z,6.03
2022-11-24T20:04:48.570Z,5.96
2022-11-24T20:07:37.023Z,6.06
2022-11-24T20:10:26.708Z,6.03
2022-11-24T20:13:14.808Z,5.92
2022-11-24T20:16:14.441Z,6.03
2022-11-24T20:19:08.281Z,5.94
2022-11-24T20:21:55.879Z,5.94
2022-11-24T20:24:43.775Z,6.02
2022-11-24T20:27:31.825Z,5.97
2022-11-24T20:30:19.963Z,5.94
2022-11-24T20:33:07.937Z,5.78
2022-11-24T20:35:56.378Z,5.98
2022-11-24T20:38:45.242Z,5.93
2022-11-24T20:41:36.034Z,5.85
2022-11-24T20:44:27.196Z,5.94
2022-11-24T20:47:15.327Z,5.80
2022-11-24T20:50:02.750Z,5.88
2022-11-24T20:52:51.899Z,5.80
2022-11-24T20:55:39.489Z,5.79
2022-11-24T20:58:27.143Z,5.66
2022-11-24T21:01:20.483Z,5.80
2022-11-24T21:04:10.330Z,5.66
2022-11-24T21:06:58.560Z,5.66
2022-11-24T21:09:47.249Z,5.71
2022-11-24T21:12:35.471Z,5.77
2022-11-24T21:15:24.419Z,5.76
2022-11-24T21:18:11.849Z,5.67
2022-11-24T21:20:59.628Z,5.65
2022-11-24T21:23:47.924Z,5.64
2022-11-24T21:26:37.054Z,5.63
2022-11-24T21:29:26.077Z,5.61
2022-11-24T21:32:13.323Z,5.46
2022-11-24T21:35:00.449Z,5.54
2022-11-24T21:37:47.669Z,5.62
2022-11-24T21:40:35.009Z,5.52
2022-11-24T21:43:21.998Z,5.53
2022-11-24T21:46:11.320Z,5.52
2022-11-24T21:48:58.443Z,5.45
2022-11-24T21:51:45.522Z,5.48
2022-11-24T21:54:32.932Z,5.33
2022-11-24T21:57:20.828Z,5.49
2022-11-24T22:00:08.100Z,5.43
2022-11-24T22:02:55.154Z,5.40
2022-11-24T22:05:42.691Z,5.41
2022-11-24T22:08:31.457Z,5.45
2022-11-24T22:11:21.481Z,5.47
2022-11-24T22:14:08.897Z,5.24
2022-11-24T22:16:55.975Z,5.28
2022-11-24T22:19:42.978Z,5.42
2022-11-24T22:22:29.979Z,5.44
2022-11-24T22:25:17.032Z,5.45
2022-11-24T22:28:04.129Z,5.44
2022-11-24T22:30:51.201Z,5.52
2022-11-24T22:33:38.480Z,5.50
2022-11-24T22:36:28.875Z,5.38
2022-11-24T22:39:15.952Z,5.23
2022-11-24T22:42:03.015Z,5.30
2022-11-24T22:44:50.129Z,5.30
2022-11-24T22:47:37.219Z,5.31
2022-11-24T22:50:24.258Z,5.33
2022-11-24T22:53:11.289Z,5.28
2022-11-24T22:56:06.804Z,5.35
2022-11-24T22:58:54.207Z,5.29
2022-11-24T23:01:41.292Z,5.24
2022-11-24T23:04:28.354Z,5.21
2022-11-24T23:07:15.521Z,5.07
2022-11-24T23:10:02.818Z,4.96
2022-11-24T23:12:50.187Z,4.99
2022-11-24T23:15:37.181Z,4.94
2022-11-24T23:18:24.280Z,4.90
2022-11-24T23:21:15.653Z,5.01
2022-11-24T23:24:04.772Z,4.79
2022-11-24T23:26:52.916Z,4.66
2022-11-24T23:29:40.098Z,4.56
2022-11-24T23:32:27.079Z,4.60
2022-11-24T23:35:14.307Z,4.81
2022-11-24T23:38:07.432Z,4.76
2022-11-24T23:40:57.776Z,4.61
2022-11-24T23:43:45.009Z,4.79
2022-11-24T23:46:32.761Z,4.64
2022-11-24T23:49:19.782Z,4.53
2022-11-24T23:52:07.127Z,4.34
2022-11-24T23:57:58.668Z,4.07
